Time;durP1;ratioP1;P1;durP2;ratioP2;P2;SDS_P1;SDS_P2;PMS_P1;PMS_P2;Temp;Humidity;BMP_temperature;BMP_pressure;BME280_temperature;BME280_humidity;BME280_pressure;Samples;Min_cycle;Max_cycle;Signal;HPM_P1;HPM_P2
2022/03/13 00:01:04;;;;;;;8.27;7.57;;;;;;;3.56;43.23;100907.03;5038734;28;20221;-73
2022/03/13 00:03:42;;;;;;;8.43;7.73;;;;;;;3.59;42.98;100903.66;4989724;28;20681;-74
2022/03/13 00:06:11;;;;;;;8.10;7.40;;;;;;;3.56;43.04;100895.84;5007720;28;20223;-74
2022/03/13 00:08:38;;;;;;;8.90;8.10;;;;;;;3.61;42.76;100893.31;5013477;28;20251;-74
2022/03/13 00:11:07;;;;;;;8.57;7.87;;;;;;;3.60;43.11;100902.78;5012800;28;20299;-74
2022/03/13 00:13:37;;;;;;;8.60;7.90;;;;;;;3.57;43.44;100910.50;5013342;28;20223;-74
2022/03/13 00:16:08;;;;;;;8.40;7.60;;;;;;;3.51;42.91;100913.84;5013306;28;20607;-74
2022/03/13 00:18:35;;;;;;;7.83;7.07;;;;;;;3.44;42.68;100914.56;5002768;28;20227;-74
2022/03/13 00:21:03;;;;;;;10.00;9.10;;;;;;;3.40;43.15;100923.09;5004821;28;20222;-73
2022/03/13 00:23:30;;;;;;;8.47;7.67;;;;;;;3.38;43.19;100924.78;5013302;28;20211;-74
2022/03/13 00:25:56;;;;;;;7.67;7.07;;;;;;;3.29;43.40;100911.69;5013030;28;20222;-74
2022/03/13 00:28:23;;;;;;;8.83;7.97;;;;;;;3.16;44.35;100900.28;5013069;28;20265;-74
2022/03/13 00:30:51;;;;;;;8.47;7.77;;;;;;;3.15;45.38;100865.00;5013038;28;20262;-74
2022/03/13 00:33:17;;;;;;;8.77;7.90;;;;;;;3.07;46.17;100833.94;5012721;28;20236;-73
2022/03/13 00:35:44;;;;;;;8.23;7.53;;;;;;;3.08;46.01;100812.47;5012603;28;20261;-73
2022/03/13 00:38:11;;;;;;;7.70;7.07;;;;;;;2.94;45.23;100825.09;5012997;28;20227;-74
2022/03/13 00:40:37;;;;;;;8.90;8.10;;;;;;;2.97;45.19;100837.16;5013201;28;20709;-74
2022/03/13 00:43:04;;;;;;;8.13;7.37;;;;;;;2.92;44.44;100856.88;5014177;28;20238;-72
2022/03/13 00:45:31;;;;;;;8.83;8.03;;;;;;;2.92;45.04;100867.19;5014341;28;20211;-74
2022/03/13 00:47:59;;;;;;;8.47;7.67;;;;;;;2.84;44.21;100869.59;5012115;28;20227;-73
2022/03/13 00:50:26;;;;;;;8.43;7.53;;;;;;;2.89;45.09;100875.69;5002602;28;20290;-74
2022/03/13 00:52:53;;;;;;;8.23;7.37;;;;;;;2.88;44.68;100861.09;5012734;28;20726;-75
2022/03/13 00:55:20;;;;;;;8.10;7.40;;;;;;;2.85;45.14;100863.59;5012492;28;20212;-74
2022/03/13 00:57:46;;;;;;;8.13;7.37;;;;;;;2.84;45.53;100830.94;5012230;28;20224;-73
2022/03/13 01:00:14;;;;;;;7.47;6.77;;;;;;;2.88;45.68;100826.72;5012612;28;20254;-75
2022/03/13 01:02:41;;;;;;;8.10;7.30;;;;;;;2.85;44.59;100808.59;5012306;28;20237;-74
2022/03/13 01:05:11;;;;;;;7.90;7.30;;;;;;;2.76;45.64;100817.91;5012498;28;20204;-74
2022/03/13 01:07:38;;;;;;;7.87;7.17;;;;;;;2.75;46.69;100818.72;5012475;28;20210;-74
2022/03/13 01:10:07;;;;;;;8.10;7.40;;;;;;;2.79;47.35;100786.13;5012386;28;20210;-74
2022/03/13 01:12:34;;;;;;;7.30;6.70;;;;;;;2.86;47.21;100764.81;5012484;28;20207;-73
2022/03/13 01:15:00;;;;;;;7.80;7.10;;;;;;;2.83;47.51;100767.31;5011772;28;20212;-74
2022/03/13 01:17:27;;;;;;;8.10;7.40;;;;;;;2.75;46.96;100777.47;5012073;28;20212;-72
2022/03/13 01:19:53;;;;;;;11.77;7.60;;;;;;;2.68;47.25;100793.69;5004357;28;20234;-74
2022/03/13 01:22:21;;;;;;;7.67;7.03;;;;;;;2.63;44.50;100808.19;5009265;28;20253;-74
2022/03/13 01:24:51;;;;;;;9.53;7.97;;;;;;;2.65;45.22;100832.28;5011975;28;20547;-74
2022/03/13 01:27:18;;;;;;;7.80;6.90;;;;;;;2.70;46.27;100837.53;5012194;28;20277;-75
2022/03/13 01:29:45;;;;;;;8.53;7.60;;;;;;;2.76;46.20;100817.91;5012032;28;20286;-73
2022/03/13 01:32:13;;;;;;;8.63;7.87;;;;;;;2.81;46.03;100802.50;5011914;28;20730;-74
2022/03/13 01:34:51;;;;;;;9.40;8.30;;;;;;;2.86;46.63;100794.88;5011989;28;20207;-74
2022/03/13 01:37:33;;;;;;;8.80;7.93;;;;;;;2.91;45.51;100783.78;5012077;28;20212;-75
2022/03/13 01:40:02;;;;;;;7.97;7.27;;;;;;;2.95;45.37;100807.91;5012088;28;20195;-74
2022/03/13 01:42:28;;;;;;;8.80;8.00;;;;;;;2.93;45.64;100807.91;5012191;28;20303;-73
2022/03/13 01:44:55;;;;;;;7.93;7.30;;;;;;;2.94;44.85;100831.97;5011942;28;20208;-73
2022/03/13 01:47:23;;;;;;;9.63;8.00;;;;;;;2.95;44.39;100834.59;5012255;28;20215;-73
2022/03/13 01:49:51;;;;;;;8.87;8.07;;;;;;;2.87;45.69;100846.44;5004097;28;20227;-73
2022/03/13 01:52:21;;;;;;;8.90;7.40;;;;;;;2.81;46.58;100823.13;5008868;28;20208;-73
2022/03/13 01:54:49;;;;;;;9.60;8.70;;;;;;;2.72;47.65;100795.47;5011622;28;20206;-73
2022/03/13 01:57:17;;;;;;;8.93;8.13;;;;;;;2.66;47.65;100764.44;5012165;28;20211;-73
2022/03/13 01:59:44;;;;;;;9.20;8.30;;;;;;;2.59;47.53;100752.28;5011950;28;20234;-74
2022/03/13 02:02:12;;;;;;;8.53;7.83;;;;;;;2.56;47.13;100752.22;5011851;28;20258;-74
2022/03/13 02:04:38;;;;;;;9.57;8.83;;;;;;;2.48;48.14;100744.34;5011783;28;20261;-73
2022/03/13 02:07:04;;;;;;;8.50;7.70;;;;;;;2.30;46.59;100746.56;5012007;28;20207;-73
2022/03/13 02:09:31;;;;;;;8.50;7.77;;;;;;;2.25;47.87;100750.75;5012432;28;20285;-72
2022/03/13 02:11:59;;;;;;;9.50;8.00;;;;;;;2.26;48.07;100737.94;5015739;28;20210;-74
2022/03/13 02:14:26;;;;;;;9.50;8.60;;;;;;;2.30;47.09;100734.56;5015352;28;20218;-73
2022/03/13 02:16:53;;;;;;;8.67;7.87;;;;;;;2.21;47.59;100734.38;5015400;28;20684;-75
2022/03/13 02:19:20;;;;;;;9.03;8.23;;;;;;;2.19;47.98;100723.19;5011301;28;20591;-73
2022/03/13 02:21:50;;;;;;;8.90;8.20;;;;;;;2.19;48.32;100700.00;5007906;28;20282;-73
2022/03/13 02:24:22;;;;;;;11.07;8.50;;;;;;;2.23;48.85;100699.22;5015133;28;20288;-73
2022/03/13 02:26:56;;;;;;;8.83;8.03;;;;;;;2.14;48.41;100696.47;5015398;28;20210;-73
2022/03/13 02:29:22;;;;;;;9.53;8.00;;;;;;;2.15;48.51;100681.03;5014917;28;20226;-74
2022/03/13 02:31:49;;;;;;;8.73;7.83;;;;;;;2.11;48.77;100673.25;5015382;28;20203;-74
2022/03/13 02:34:16;;;;;;;9.20;8.30;;;;;;;2.09;49.21;100669.78;5014713;28;20616;-74
2022/03/13 02:36:58;;;;;;;8.77;7.97;;;;;;;2.02;49.23;100660.19;5015898;28;20207;-73
2022/03/13 02:39:26;;;;;;;10.57;8.37;;;;;;;2.02;49.73;100660.19;5015937;28;20234;-73
2022/03/13 02:41:53;;;;;;;8.03;7.20;;;;;;;1.94;50.59;100623.97;5016144;28;20649;-74
2022/03/13 02:44:20;;;;;;;8.90;8.10;;;;;;;1.89;50.27;100608.47;5014358;28;20208;-73
2022/03/13 02:46:58;;;;;;;8.00;7.23;;;;;;;1.63;50.56;100615.69;5014942;28;20206;-73
2022/03/13 02:49:27;;;;;;;9.43;7.57;;;;;;;1.44;50.65;100623.84;5010610;28;20273;-73
2022/03/13 02:51:57;;;;;;;8.97;8.17;;;;;;;1.47;50.01;100614.50;5008484;28;20612;-75
2022/03/13 02:54:24;;;;;;;8.57;7.77;;;;;;;1.53;50.68;100618.91;5014577;28;20261;-73
2022/03/13 02:56:52;;;;;;;7.83;7.13;;;;;;;1.47;49.22;100635.06;5014649;28;20211;-75
2022/03/13 02:59:18;;;;;;;8.57;7.77;;;;;;;1.56;48.72;100660.97;5014428;28;20676;-73
2022/03/13 03:01:45;;;;;;;7.83;7.13;;;;;;;1.64;49.77;100653.41;5014668;28;20223;-74
2022/03/13 03:04:13;;;;;;;8.00;7.20;;;;;;;1.70;49.58;100644.97;5014100;28;20199;-74
2022/03/13 03:06:48;;;;;;;8.53;7.77;;;;;;;1.75;50.10;100644.22;5014116;28;20207;-74
2022/03/13 03:09:17;;;;;;;7.43;6.83;;;;;;;1.73;51.68;100619.31;5014452;28;20223;-75
2022/03/13 03:11:44;;;;;;;8.13;7.30;;;;;;;1.73;51.33;100596.16;5014250;28;20278;-74
2022/03/13 03:14:11;;;;;;;8.50;7.77;;;;;;;1.78;50.24;100592.81;5014173;28;20203;-72
2022/03/13 03:16:38;;;;;;;7.40;6.80;;;;;;;1.73;49.73;100617.59;5014341;28;20215;-75
2022/03/13 03:19:04;;;;;;;7.87;7.17;;;;;;;1.77;50.73;100615.94;5011225;28;20273;-74
2022/03/13 03:21:31;;;;;;;7.87;7.10;;;;;;;1.77;50.76;100601.38;5005230;28;20257;-74
2022/03/13 03:23:57;;;;;;;7.53;6.93;;;;;;;1.77;50.96;100591.09;5014381;28;20272;-75
2022/03/13 03:26:24;;;;;;;8.33;7.53;;;;;;;1.77;49.67;100595.38;5013860;28;20207;-74
2022/03/13 03:28:50;;;;;;;8.00;7.20;;;;;;;1.77;49.51;100609.09;5013910;28;20235;-74
2022/03/13 03:31:18;;;;;;;8.47;7.60;;;;;;;1.71;50.69;100608.13;5014129;28;20206;-75
2022/03/13 03:33:44;;;;;;;8.30;7.60;;;;;;;1.74;50.79;100605.59;5013599;28;20742;-74
2022/03/13 03:36:15;;;;;;;7.33;6.73;;;;;;;1.61;50.69;100601.06;5014167;28;20214;-73
2022/03/13 03:38:41;;;;;;;8.27;7.47;;;;;;;1.41;50.42;100592.91;5013624;28;20735;-74
2022/03/13 03:41:08;;;;;;;8.40;7.60;;;;;;;1.39;49.51;100621.19;5014002;28;20207;-74
2022/03/13 03:43:34;;;;;;;9.20;7.20;;;;;;;1.31;47.03;100651.00;5013759;28;20207;-74
2022/03/13 03:46:00;;;;;;;7.80;7.10;;;;;;;1.36;46.17;100709.41;5013609;28;20211;-74
2022/03/13 03:48:29;;;;;;;10.03;7.13;;;;;;;1.48;44.60;100749.97;5010735;28;20257;-73
2022/03/13 03:50:55;;;;;;;8.23;7.53;;;;;;;1.68;47.62;100754.72;5005318;28;20204;-75
2022/03/13 03:53:22;;;;;;;7.40;6.70;;;;;;;1.64;48.88;100720.31;5013309;28;20203;-74
2022/03/13 03:55:48;;;;;;;8.00;7.20;;;;;;;1.62;49.54;100682.53;5013217;28;20835;-74
2022/03/13 03:58:14;;;;;;;7.30;6.60;;;;;;;1.56;50.23;100629.25;5013615;28;20231;-74
2022/03/13 04:00:41;;;;;;;7.83;7.13;;;;;;;1.61;50.08;100625.06;5013325;28;20212;-74
2022/03/13 04:03:07;;;;;;;7.93;7.23;;;;;;;1.57;49.93;100621.56;5013129;28;20711;-72
2022/03/13 04:05:35;;;;;;;8.23;7.53;;;;;;;1.56;49.59;100635.25;5013419;28;20206;-73
2022/03/13 04:08:02;;;;;;;8.40;7.47;;;;;;;1.56;49.86;100624.97;5013288;28;20226;-74
2022/03/13 04:10:28;;;;;;;7.97;7.17;;;;;;;1.52;50.88;100614.59;5013425;28;20211;-74
2022/03/13 04:12:54;;;;;;;9.60;7.47;;;;;;;1.51;50.77;100600.84;5013015;28;20617;-73
2022/03/13 04:15:21;;;;;;;8.80;6.70;;;;;;;1.49;51.85;100584.53;5013112;28;20211;-73
2022/03/13 04:17:47;;;;;;;7.63;6.93;;;;;;;1.49;51.27;100573.38;5013181;28;20283;-74
2022/03/13 04:20:14;;;;;;;8.43;7.60;;;;;;;1.53;49.62;100606.03;5002169;28;20259;-73
2022/03/13 04:22:41;;;;;;;9.60;8.03;;;;;;;1.42;49.10;100622.94;5012935;28;20288;-75
2022/03/13 04:25:10;;;;;;;9.60;8.40;;;;;;;1.29;51.21;100616.66;5012828;28;20652;-74
2022/03/13 04:27:37;;;;;;;9.37;8.47;;;;;;;1.32;52.76;100591.03;5012977;28;20302;-74
2022/03/13 04:30:04;;;;;;;8.83;8.03;;;;;;;1.20;52.54;100563.34;5012967;28;20261;-72
2022/03/13 04:32:31;;;;;;;9.60;8.20;;;;;;;0.97;51.68;100573.13;5012881;28;20207;-73
2022/03/13 04:34:57;;;;;;;9.40;8.50;;;;;;;1.03;51.19;100565.56;5012796;28;20211;-73
2022/03/13 04:37:25;;;;;;;9.40;8.50;;;;;;;0.90;51.94;100561.84;5013054;28;20211;-72
2022/03/13 04:39:52;;;;;;;8.57;7.87;;;;;;;0.84;53.84;100548.88;5012823;28;20297;-75
2022/03/13 04:42:19;;;;;;;8.70;7.90;;;;;;;0.85;53.35;100522.31;5012655;28;20241;-74
2022/03/13 04:44:46;;;;;;;10.20;9.10;;;;;;;0.75;53.83;100502.41;5012209;28;20265;-74
2022/03/13 04:47:12;;;;;;;9.23;8.33;;;;;;;0.57;54.88;100484.88;5012559;28;20573;-72
2022/03/13 04:49:39;;;;;;;9.37;8.47;;;;;;;0.47;54.83;100477.81;5006501;28;20275;-74
2022/03/13 04:52:06;;;;;;;9.27;8.37;;;;;;;0.48;55.15;100449.59;5008013;28;20204;-74
2022/03/13 04:54:33;;;;;;;8.63;7.83;;;;;;;0.55;53.37;100468.56;5012329;28;20207;-72
2022/03/13 04:57:00;;;;;;;8.70;7.90;;;;;;;0.55;52.99;100484.84;5012511;28;20211;-74
2022/03/13 04:59:27;;;;;;;9.07;8.17;;;;;;;0.60;53.22;100495.25;5012418;28;20375;-73
2022/03/13 05:01:53;;;;;;;9.00;8.10;;;;;;;0.56;52.72;100502.00;5012486;28;20285;-74
2022/03/13 05:04:20;;;;;;;8.43;7.63;;;;;;;0.51;52.68;100513.00;5012013;28;20210;-73
2022/03/13 05:06:46;;;;;;;9.70;7.93;;;;;;;0.34;55.57;100474.13;5013071;28;20257;-75
2022/03/13 05:09:13;;;;;;;9.53;8.70;;;;;;;0.38;55.58;100445.09;5013414;28;20231;-74
2022/03/13 05:11:39;;;;;;;8.80;7.90;;;;;;;0.37;55.27;100435.66;5013638;28;20210;-72
2022/03/13 05:14:07;;;;;;;9.70;8.90;;;;;;;0.38;55.58;100433.13;5013794;28;20573;-73
2022/03/13 05:16:34;;;;;;;9.50;8.60;;;;;;;0.35;54.71;100443.31;5012448;28;20215;-74
2022/03/13 05:19:01;;;;;;;10.43;9.47;;;;;;;0.42;53.96;100464.88;5009674;28;20568;-72
2022/03/13 05:21:27;;;;;;;11.80;10.10;;;;;;;0.44;54.85;100472.59;5005381;28;20232;-72
2022/03/13 05:23:54;;;;;;;11.80;10.70;;;;;;;0.43;55.27;100460.59;5014500;28;20199;-74
2022/03/13 05:26:20;;;;;;;14.70;10.97;;;;;;;0.47;54.67;100463.28;5012742;28;20211;-74
2022/03/13 05:28:47;;;;;;;11.57;10.37;;;;;;;0.42;55.09;100461.44;5012321;28;20281;-74
2022/03/13 05:31:15;;;;;;;10.70;9.60;;;;;;;0.41;55.25;100455.44;5011955;28;20555;-72
2022/03/13 05:33:41;;;;;;;10.63;9.73;;;;;;;0.34;55.98;100438.16;5012056;28;20723;-73
2022/03/13 05:36:09;;;;;;;13.20;9.80;;;;;;;0.39;54.81;100439.13;5012244;28;20214;-72
2022/03/13 05:38:36;;;;;;;10.53;9.60;;;;;;;0.35;56.44;100430.47;5012106;28;20281;-74
2022/03/13 05:41:06;;;;;;;10.70;9.70;;;;;;;0.36;56.68;100401.41;5012112;28;20257;-73
2022/03/13 05:43:33;;;;;;;9.17;8.30;;;;;;;0.34;57.15;100381.69;5011955;28;20230;-72
2022/03/13 05:45:59;;;;;;;10.00;9.10;;;;;;;0.33;57.28;100362.84;5014673;28;20203;-74
2022/03/13 05:48:30;;;;;;;10.77;9.77;;;;;;;0.32;57.15;100348.28;5013138;28;20241;-74
2022/03/13 05:50:56;;;;;;;10.57;9.67;;;;;;;0.24;57.07;100370.34;5007622;28;20198;-74
2022/03/13 05:53:23;;;;;;;9.73;8.80;;;;;;;0.23;57.14;100378.00;5015923;28;20199;-72
2022/03/13 05:55:49;;;;;;;9.23;8.33;;;;;;;0.23;56.11;100390.84;5015389;28;20210;-72
2022/03/13 05:58:17;;;;;;;9.60;8.70;;;;;;;0.14;57.38;100387.25;5015394;28;20632;-74
2022/03/13 06:00:44;;;;;;;9.67;8.17;;;;;;;0.25;56.72;100384.03;5015539;28;20217;-72
2022/03/13 06:03:10;;;;;;;9.07;8.27;;;;;;;0.20;57.07;100399.34;5015153;28;20233;-72
2022/03/13 06:05:38;;;;;;;9.10;8.20;;;;;;;0.21;56.78;100384.81;5015664;28;20207;-74
2022/03/13 06:08:05;;;;;;;9.53;8.53;;;;;;;0.29;56.39;100394.41;5015680;28;20234;-74
2022/03/13 06:10:32;;;;;;;10.53;8.80;;;;;;;0.28;56.79;100392.69;5015569;28;20214;-72
2022/03/13 06:12:59;;;;;;;8.60;7.90;;;;;;;0.29;55.81;100403.81;5015551;28;20298;-74
2022/03/13 06:15:27;;;;;;;11.13;8.17;;;;;;;0.25;56.29;100417.41;5015426;28;20626;-73
2022/03/13 06:17:57;;;;;;;9.57;8.67;;;;;;;0.23;57.09;100404.53;5015079;28;20227;-73
2022/03/13 06:20:23;;;;;;;9.57;8.57;;;;;;;0.18;55.56;100399.31;5003316;28;20203;-74
2022/03/13 06:22:51;;;;;;;12.03;8.83;;;;;;;0.30;53.17;100450.06;5009402;28;20222;-73
2022/03/13 06:25:18;;;;;;;8.70;7.93;;;;;;;0.33;53.81;100469.81;5017029;28;20209;-73
2022/03/13 06:27:45;;;;;;;9.07;8.27;;;;;;;0.35;55.21;100463.84;5015219;28;20212;-74
2022/03/13 06:30:15;;;;;;;8.83;8.03;;;;;;;0.40;55.16;100453.72;5013644;28;20203;-73
2022/03/13 06:32:44;;;;;;;11.20;8.53;;;;;;;0.39;55.78;100451.97;4999465;28;20199;-73
2022/03/13 06:35:11;;;;;;;9.40;8.60;;;;;;;0.41;55.24;100439.16;5014859;28;20253;-72
2022/03/13 06:37:38;;;;;;;13.13;8.00;;;;;;;0.45;55.21;100443.53;5015165;28;20280;-72
2022/03/13 06:40:10;;;;;;;8.10;7.30;;;;;;;0.47;54.83;100455.56;5015019;28;20209;-73
2022/03/13 06:42:37;;;;;;;8.03;7.33;;;;;;;0.54;53.82;100461.72;5014820;28;20273;-73
2022/03/13 06:45:04;;;;;;;8.10;7.40;;;;;;;0.56;54.36;100480.59;5014714;28;20262;-73
2022/03/13 06:47:30;;;;;;;10.87;7.60;;;;;;;0.67;53.79;100483.41;5015006;28;20203;-72
2022/03/13 06:49:57;;;;;;;8.97;7.33;;;;;;;0.75;53.75;100510.13;5014884;28;20259;-73
2022/03/13 06:52:23;;;;;;;8.47;7.77;;;;;;;0.82;53.72;100508.56;5014921;28;20203;-72
2022/03/13 06:54:50;;;;;;;9.07;8.27;;;;;;;0.83;54.41;100500.00;5014292;28;20233;-72
2022/03/13 06:57:18;;;;;;;7.80;7.03;;;;;;;0.92;52.41;100529.34;5013463;28;20207;-72
2022/03/13 06:59:46;;;;;;;11.90;9.17;;;;;;;0.94;52.83;100545.66;5014122;28;20224;-72
2022/03/13 07:02:13;;;;;;;11.37;10.20;;;;;;;0.97;54.08;100539.72;5006109;28;20211;-72
2022/03/13 07:04:39;;;;;;;15.07;10.67;;;;;;;1.05;54.27;100519.31;5014311;28;20211;-72
2022/03/13 07:07:06;;;;;;;10.27;9.23;;;;;;;1.07;54.49;100502.22;5014535;28;20207;-73
2022/03/13 07:09:33;;;;;;;18.93;10.17;;;;;;;1.10;55.15;100480.03;5014363;28;20227;-74
2022/03/13 07:11:59;;;;;;;10.63;9.43;;;;;;;1.19;53.34;100493.06;5014377;28;20198;-73
2022/03/13 07:14:29;;;;;;;9.00;8.10;;;;;;;1.31;50.28;100555.84;5014052;28;20222;-73
2022/03/13 07:16:56;;;;;;;10.33;7.70;;;;;;;1.39;50.51;100611.75;5014203;28;20211;-73
2022/03/13 07:19:22;;;;;;;8.87;7.97;;;;;;;1.47;49.35;100645.38;5014396;28;20239;-74
2022/03/13 07:21:49;;;;;;;8.43;7.60;;;;;;;1.54;49.65;100660.06;5014213;28;20211;-73
2022/03/13 07:24:15;;;;;;;8.73;7.40;;;;;;;1.61;49.66;100668.81;5014001;28;20233;-73
2022/03/13 07:26:42;;;;;;;8.43;7.63;;;;;;;1.70;48.42;100675.84;5014326;28;20216;-73
2022/03/13 07:29:08;;;;;;;9.90;7.73;;;;;;;1.75;48.21;100687.13;5013920;28;20231;-71
2022/03/13 07:31:36;;;;;;;8.57;7.77;;;;;;;1.79;48.46;100694.91;5004905;28;20207;-71
2022/03/13 07:34:02;;;;;;;8.47;7.27;;;;;;;1.83;48.79;100698.44;5013658;28;20675;-73
2022/03/13 07:36:29;;;;;;;9.57;8.57;;;;;;;1.87;48.70;100692.50;5014018;28;20210;-72
2022/03/13 07:38:55;;;;;;;9.97;9.07;;;;;;;1.91;49.80;100684.00;5013877;28;20226;-72
2022/03/13 07:41:22;;;;;;;9.30;8.40;;;;;;;1.94;49.63;100660.91;5013945;28;20207;-73
2022/03/13 07:43:48;;;;;;;9.10;8.30;;;;;;;1.98;49.50;100651.53;5013405;28;20262;-72
2022/03/13 07:46:14;;;;;;;8.23;7.43;;;;;;;2.07;48.41;100658.56;5013846;28;20211;-73
2022/03/13 07:48:44;;;;;;;8.50;7.70;;;;;;;2.11;49.83;100650.06;5013638;28;20770;-74
2022/03/13 07:51:10;;;;;;;8.80;8.10;;;;;;;2.18;48.80;100664.78;5013912;28;20207;-74
2022/03/13 07:53:37;;;;;;;10.67;9.10;;;;;;;2.22;49.27;100656.28;5013597;28;20200;-72
2022/03/13 07:56:04;;;;;;;9.00;8.20;;;;;;;2.30;48.50;100659.88;5013353;28;20576;-71
2022/03/13 07:58:32;;;;;;;10.83;9.27;;;;;;;2.35;48.81;100663.38;5013659;28;20277;-73
2022/03/13 08:00:59;;;;;;;9.53;8.73;;;;;;;2.44;48.50;100685.88;5007298;28;20285;-73
2022/03/13 08:03:29;;;;;;;10.13;9.00;;;;;;;2.45;46.74;100692.75;5011208;28;20222;-73
2022/03/13 08:05:57;;;;;;;8.97;8.17;;;;;;;2.55;47.97;100711.81;5013114;28;20689;-73
2022/03/13 08:08:24;;;;;;;9.93;7.20;;;;;;;2.65;46.84;100718.03;5013059;28;20226;-73
2022/03/13 08:10:50;;;;;;;9.00;7.13;;;;;;;2.72;46.60;100753.38;5000755;28;20257;-73
2022/03/13 08:13:16;;;;;;;8.90;7.90;;;;;;;2.84;46.65;100747.59;4987539;28;20603;-73
2022/03/13 08:15:43;;;;;;;12.07;8.83;;;;;;;2.89;48.11;100735.63;4982242;28;20247;-75
2022/03/13 08:18:10;;;;;;;11.00;9.90;;;;;;;3.03;47.21;100720.38;4983567;28;20476;-75
2022/03/13 08:20:37;;;;;;;9.50;8.70;;;;;;;3.03;47.54;100717.81;4990886;28;20207;-77
2022/03/13 08:23:05;;;;;;;9.73;8.83;;;;;;;3.12;48.18;100723.13;4994428;28;20234;-75
2022/03/13 08:25:31;;;;;;;9.00;8.17;;;;;;;3.28;45.76;100731.97;4994938;28;20204;-77
2022/03/13 08:27:58;;;;;;;8.77;8.03;;;;;;;3.39;45.44;100756.22;4993956;28;20229;-77
2022/03/13 08:30:24;;;;;;;8.83;8.07;;;;;;;3.48;45.48;100778.72;4993472;28;20206;-77
2022/03/13 08:32:51;;;;;;;11.60;8.33;;;;;;;3.52;46.46;100788.22;4992738;28;20208;-76
2022/03/13 08:35:18;;;;;;;9.10;8.40;;;;;;;3.56;46.38;100777.97;5001761;28;20560;-77
2022/03/13 08:37:45;;;;;;;9.03;8.13;;;;;;;3.65;45.78;100777.25;5012713;28;20229;-76
2022/03/13 08:40:14;;;;;;;9.00;8.20;;;;;;;3.68;45.73;100776.44;5007446;28;20692;-73
2022/03/13 08:42:40;;;;;;;9.27;7.87;;;;;;;3.72;45.41;100767.88;5003767;28;20670;-75
2022/03/13 08:45:08;;;;;;;7.90;7.17;;;;;;;3.82;45.32;100780.06;5012204;28;20222;-76
2022/03/13 08:47:34;;;;;;;7.70;7.00;;;;;;;4.06;55.12;100658.13;5012278;28;20672;-74
2022/03/13 08:50:01;;;;;;;7.83;7.13;;;;;;;4.50;57.10;100424.22;5012518;28;20213;-76
2022/03/13 08:52:27;;;;;;;8.83;8.00;;;;;;;4.55;45.79;100582.81;5012691;28;20215;-75
2022/03/13 08:54:54;;;;;;;7.47;6.83;;;;;;;4.54;44.12;100708.63;5012016;28;20215;-72
2022/03/13 08:57:21;;;;;;;8.10;7.30;;;;;;;4.55;44.28;100785.28;5011766;28;20208;-73
2022/03/13 08:59:48;;;;;;;10.37;6.90;;;;;;;4.58;45.25;100805.16;5012998;28;20278;-76
2022/03/13 09:02:19;;;;;;;8.20;6.90;;;;;;;4.58;43.99;100821.53;5013228;28;20638;-80
2022/03/13 09:04:45;;;;;;;8.33;7.53;;;;;;;4.64;43.29;100841.44;5014192;28;20263;-79
2022/03/13 09:07:12;;;;;;;9.32;8.52;;;;;;;4.74;46.21;100827.75;5011199;28;20900;-76
2022/03/13 09:09:38;;;;;;;7.70;7.00;;;;;;;4.87;44.11;100812.34;5011623;28;20725;-76
2022/03/13 09:12:06;;;;;;;7.77;7.07;;;;;;;5.04;49.97;100803.06;5000609;28;20263;-77
2022/03/13 09:14:35;;;;;;;8.37;7.17;;;;;;;5.28;52.68;100714.41;5011517;28;20233;-77
2022/03/13 09:17:01;;;;;;;7.37;6.77;;;;;;;5.35;45.19;100690.31;5013065;28;20213;-75
2022/03/13 09:19:28;;;;;;;9.87;6.63;;;;;;;5.45;48.86;100714.53;5013571;28;20255;-78
2022/03/13 09:21:54;;;;;;;8.13;7.43;;;;;;;5.64;49.98;100665.44;5012968;28;20230;-76
2022/03/13 09:24:21;;;;;;;10.83;7.87;;;;;;;5.76;46.77;100704.34;5012709;28;20753;-73
2022/03/13 09:26:48;;;;;;;7.83;7.13;;;;;;;5.81;45.42;100756.16;5012338;28;20252;-76
2022/03/13 09:29:15;;;;;;;7.90;7.03;;;;;;;5.98;47.22;100697.56;5012422;28;20242;-73
2022/03/13 09:31:42;;;;;;;7.80;7.10;;;;;;;6.06;45.74;100775.31;5012044;28;20632;-73
2022/03/13 09:34:09;;;;;;;7.60;6.80;;;;;;;6.35;49.89;100682.13;5010760;28;20210;-74
2022/03/13 09:36:37;;;;;;;7.47;6.67;;;;;;;6.52;47.46;100680.44;5012087;28;20209;-73
2022/03/13 09:39:05;;;;;;;8.67;7.27;;;;;;;6.93;50.37;100642.41;5012058;28;20237;-75
2022/03/13 09:41:31;;;;;;;7.33;6.73;;;;;;;7.13;45.57;100681.31;5004461;28;20206;-75
2022/03/13 09:43:58;;;;;;;7.53;6.87;;;;;;;7.26;45.52;100775.66;5006018;28;20609;-73
2022/03/13 09:46:24;;;;;;;7.83;7.07;;;;;;;7.28;44.77;100849.22;5011914;28;20737;-75
2022/03/13 09:48:54;;;;;;;7.43;6.83;;;;;;;7.38;42.21;100845.75;5011647;28;20719;-74
2022/03/13 09:51:20;;;;;;;7.27;6.57;;;;;;;7.52;46.79;100870.00;5012054;28;20208;-75
2022/03/13 09:53:47;;;;;;;7.50;6.80;;;;;;;7.72;41.72;100819.78;5011548;28;20210;-74
2022/03/13 09:56:13;;;;;;;6.97;6.37;;;;;;;7.88;41.80;100824.06;5012143;28;20214;-75
2022/03/13 09:58:41;;;;;;;8.27;7.47;;;;;;;7.90;40.61;100895.09;5012014;28;20308;-74
2022/03/13 10:01:08;;;;;;;8.33;7.57;;;;;;;7.79;38.34;100973.94;5011798;28;20207;-74
2022/03/13 10:03:35;;;;;;;7.60;6.63;;;;;;;7.86;40.87;100958.34;5011002;28;20638;-74
2022/03/13 10:06:03;;;;;;;7.73;6.47;;;;;;;8.02;44.05;100895.97;5012093;28;20214;-74
2022/03/13 10:08:32;;;;;;;7.27;6.57;;;;;;;8.13;43.19;100863.03;5011681;28;20232;-77
2022/03/13 10:10:59;;;;;;;7.73;6.80;;;;;;;8.23;40.10;100841.34;5006065;28;20242;-73
2022/03/13 10:13:37;;;;;;;6.90;6.30;;;;;;;8.24;41.58;100982.63;5003476;28;20655;-75
2022/03/13 10:16:05;;;;;;;7.33;6.57;;;;;;;8.25;38.30;100986.97;5012076;28;20671;-73
2022/03/13 10:18:32;;;;;;;6.97;6.40;;;;;;;8.32;39.84;100992.19;5012781;28;20320;-75
2022/03/13 10:21:09;;;;;;;6.73;6.03;;;;;;;8.50;42.19;101011.25;5011995;28;20668;-75
2022/03/13 10:23:36;;;;;;;6.50;5.90;;;;;;;8.69;38.49;100980.88;5011264;28;20680;-72
2022/03/13 10:26:04;;;;;;;6.60;6.00;;;;;;;8.68;35.03;101060.69;5001656;28;20207;-76
2022/03/13 10:28:32;;;;;;;7.60;6.87;;;;;;;8.71;37.05;101125.72;4981285;28;20743;-76
2022/03/13 10:31:13;;;;;;;6.57;6.07;;;;;;;8.80;35.48;101118.78;4984012;28;20207;-76
2022/03/13 10:34:00;;;;;;;6.50;5.90;;;;;;;8.84;32.28;101143.94;4985874;28;20193;-76
2022/03/13 10:36:35;;;;;;;6.37;5.47;;;;;;;8.84;33.94;101194.28;4984526;28;20217;-76
2022/03/13 10:39:03;;;;;;;6.67;6.07;;;;;;;8.92;33.61;101217.72;4984552;28;20305;-76
2022/03/13 10:41:43;;;;;;;7.17;6.47;;;;;;;8.94;33.01;101216.00;4993715;28;20673;-76
2022/03/13 10:44:13;;;;;;;6.60;6.03;;;;;;;9.00;34.57;101208.19;4990244;28;20208;-76
2022/03/13 10:46:41;;;;;;;11.93;5.97;;;;;;;9.10;35.75;101232.50;4984150;28;20195;-74
2022/03/13 10:49:09;;;;;;;6.30;5.70;;;;;;;9.38;34.00;101138.69;4984728;28;20215;-76
2022/03/13 10:51:40;;;;;;;5.47;5.07;;;;;;;9.47;34.18;101217.66;4985834;28;20695;-75
2022/03/13 10:54:08;;;;;;;6.40;5.63;;;;;;;9.64;33.21;101235.03;4985372;28;20230;-76
2022/03/13 10:56:35;;;;;;;6.80;6.30;;;;;;;9.81;32.58;101208.91;4985413;28;20220;-76
2022/03/13 10:59:17;;;;;;;8.70;5.97;;;;;;;9.77;32.13;101254.09;4992291;28;20306;-76
2022/03/13 11:01:43;;;;;;;6.73;6.13;;;;;;;9.79;31.76;101270.59;4994406;28;20256;-76
2022/03/13 11:04:10;;;;;;;7.07;6.57;;;;;;;9.86;30.93;101286.25;4993736;28;20266;-74
2022/03/13 11:06:38;;;;;;;6.87;6.20;;;;;;;9.84;31.80;101310.59;4993058;28;20212;-75
2022/03/13 11:09:05;;;;;;;6.87;6.27;;;;;;;9.93;30.96;101313.19;4994293;28;20243;-77
2022/03/13 11:11:32;;;;;;;6.50;6.00;;;;;;;10.09;31.24;101270.53;5003057;28;20206;-76
2022/03/13 11:14:01;;;;;;;6.57;5.97;;;;;;;10.22;29.77;101322.66;5008313;28;20206;-76
2022/03/13 11:16:29;;;;;;;6.30;5.70;;;;;;;10.37;29.57;101295.69;5014648;28;20217;-75
2022/03/13 11:18:57;;;;;;;6.47;5.67;;;;;;;10.39;28.79;101314.81;5013744;28;20227;-76
2022/03/13 11:21:25;;;;;;;5.50;5.00;;;;;;;10.60;31.17;101332.13;5014126;28;20680;-75
2022/03/13 11:23:53;;;;;;;5.60;5.10;;;;;;;10.69;28.67;101335.56;5013823;28;20231;-76
2022/03/13 11:26:23;;;;;;;5.67;5.17;;;;;;;10.75;29.37;101373.84;5014031;28;20284;-75
2022/03/13 11:28:52;;;;;;;6.17;5.67;;;;;;;10.78;28.96;101379.03;5014076;28;20231;-76
2022/03/13 11:31:36;;;;;;;6.50;5.70;;;;;;;10.88;29.21;101385.06;5013981;28;20210;-76
2022/03/13 11:34:13;;;;;;;6.40;5.67;;;;;;;10.96;29.61;101380.69;5013999;28;20187;-76